Time;durP1;ratioP1;P1;durP2;ratioP2;P2;SDS_P1;SDS_P2;PMS_P1;PMS_P2;Temp;Humidity;BMP_temperature;BMP_pressure;BME280_temperature;BME280_humidity;BME280_pressure;Samples;Min_cycle;Max_cycle;Signal;HPM_P1;HPM_P2
2022/11/03 00:01:39;;;;;;;7.53;2.83;;;;;;;9.00;100.00;100109.06;10496911;28;20488;-67
2022/11/03 00:06:42;;;;;;;5.72;3.28;;;;;;;9.18;100.00;100140.72;10496403;28;20040;-67
2022/11/03 00:11:44;;;;;;;8.15;3.70;;;;;;;9.21;100.00;100142.22;10496317;28;20036;-67
2022/11/03 00:16:46;;;;;;;11.27;3.72;;;;;;;9.07;100.00;100107.44;10495591;28;20555;-67
2022/11/03 00:21:47;;;;;;;8.18;4.22;;;;;;;8.98;100.00;100105.78;10557423;28;20130;-67
2022/11/03 00:26:47;;;;;;;7.85;4.80;;;;;;;9.10;100.00;100128.31;10580390;28;20172;-67
2022/11/03 00:31:48;;;;;;;9.70;5.60;;;;;;;9.04;100.00;100126.31;10579841;28;20138;-67
2022/11/03 00:36:49;;;;;;;9.32;5.80;;;;;;;9.08;100.00;100138.22;10578829;28;20087;-67
2022/11/03 00:41:52;;;;;;;10.70;6.43;;;;;;;9.07;100.00;100141.88;10579635;28;20051;-67
2022/11/03 00:46:53;;;;;;;11.52;5.57;;;;;;;9.12;100.00;100141.38;10579023;28;20468;-67
2022/11/03 00:51:53;;;;;;;11.65;6.25;;;;;;;8.62;100.00;100055.72;10580969;28;20047;-67
2022/11/03 00:56:54;;;;;;;11.98;6.60;;;;;;;8.97;100.00;100114.69;10579168;28;20131;-67
2022/11/03 01:01:55;;;;;;;8.55;6.05;;;;;;;9.04;100.00;100115.72;10578705;28;20035;-67
2022/11/03 01:06:57;;;;;;;12.55;7.07;;;;;;;8.37;100.00;100015.06;10579688;27;20051;-67
2022/11/03 01:12:16;;;;;;;12.90;6.78;;;;;;;8.78;100.00;100062.84;10579711;28;20499;-67
2022/11/03 01:17:23;;;;;;;12.80;6.53;;;;;;;9.04;100.00;100102.47;10578521;28;20460;-67
2022/11/03 01:22:24;;;;;;;10.15;7.05;;;;;;;9.00;100.00;100100.28;10560422;28;20046;-67
2022/11/03 01:27:24;;;;;;;11.50;7.32;;;;;;;9.00;100.00;100087.03;10500653;28;20128;-67
2022/11/03 01:32:25;;;;;;;11.52;7.32;;;;;;;9.05;100.00;100106.75;10500743;28;20063;-67
2022/11/03 01:37:26;;;;;;;13.27;7.95;;;;;;;9.11;100.00;100118.53;10502155;28;20060;-67
2022/11/03 01:42:27;;;;;;;17.40;7.47;;;;;;;9.17;100.00;100122.34;10502407;28;20040;-67
2022/11/03 01:47:31;;;;;;;13.15;7.55;;;;;;;8.72;100.00;100057.38;10502518;28;20052;-67
2022/11/03 01:52:38;;;;;;;13.77;8.63;;;;;;;9.19;100.00;100129.16;10501219;28;20044;-67
2022/11/03 01:58:03;;;;;;;11.95;8.60;;;;;;;9.13;100.00;100117.38;10500980;28;20044;-67
2022/11/03 02:03:04;;;;;;;12.80;7.93;;;;;;;9.13;100.00;100127.97;10500324;28;20048;-67
2022/11/03 02:08:15;;;;;;;14.25;8.60;;;;;;;8.67;100.00;100056.06;10501197;28;20036;-67
2022/11/03 02:13:20;;;;;;;14.50;9.27;;;;;;;9.11;100.00;100140.56;10500338;28;20094;-67
2022/11/03 02:18:24;;;;;;;15.63;9.43;;;;;;;9.08;100.00;100140.06;10502432;28;20039;-68
2022/11/03 02:23:37;;;;;;;17.67;11.10;;;;;;;8.98;100.00;100129.63;10517748;28;20048;-67
2022/11/03 02:28:37;;;;;;;13.65;9.95;;;;;;;9.08;100.00;100151.47;10523924;28;20046;-67
2022/11/03 02:33:59;;;;;;;21.80;11.98;;;;;;;8.74;100.00;100095.13;10541918;28;20443;-67
2022/11/03 02:39:18;;;;;;;20.35;14.63;;;;;;;9.19;100.00;100145.06;10541282;28;20139;-67
2022/11/03 02:44:19;;;;;;;17.70;12.27;;;;;;;8.99;100.00;100088.88;10540657;28;20086;-67
2022/11/03 02:49:20;;;;;;;19.42;11.40;;;;;;;9.12;100.00;100101.63;10542486;28;20074;-67
2022/11/03 02:54:37;;;;;;;16.63;11.30;;;;;;;9.15;100.00;100103.94;10526040;28;20758;-67
2022/11/03 02:59:51;;;;;;;18.35;11.48;;;;;;;9.04;100.00;100091.88;10508738;28;20189;-67
2022/11/03 03:04:56;;;;;;;24.50;10.98;;;;;;;9.01;100.00;100071.00;10522836;28;20047;-67
2022/11/03 03:10:01;;;;;;;18.35;10.93;;;;;;;8.70;100.00;100039.00;10505588;28;20044;-67
2022/11/03 03:15:06;;;;;;;19.75;11.95;;;;;;;9.16;100.00;100131.31;10497846;28;20511;-67
2022/11/03 03:20:35;;;;;;;16.33;12.00;;;;;;;9.18;100.00;100122.16;10521046;28;20075;-67
2022/11/03 03:25:50;;;;;;;34.92;13.48;;;;;;;9.18;100.00;100124.81;10539085;28;20104;-67
2022/11/03 03:30:55;;;;;;;20.98;11.63;;;;;;;9.02;100.00;100115.03;10539290;28;20036;-67
2022/11/03 03:35:58;;;;;;;18.13;11.98;;;;;;;9.07;100.00;100127.81;10539935;28;20043;-67
2022/11/03 03:41:01;;;;;;;21.83;13.35;;;;;;;8.97;100.00;100104.09;10509727;28;20040;-67
2022/11/03 03:46:07;;;;;;;20.08;13.50;;;;;;;8.98;100.00;100107.59;10497353;28;20044;-67
2022/11/03 03:51:09;;;;;;;13.10;6.88;;;;;;;8.86;100.00;100125.63;10495254;28;20119;-67
2022/11/03 03:56:10;;;;;;;11.65;3.92;;;;;;;8.52;100.00;100104.47;10496465;28;20109;-66
2022/11/03 04:01:11;;;;;;;4.93;3.00;;;;;;;8.45;100.00;100117.53;10496060;28;20098;-67
2022/11/03 04:06:12;;;;;;;8.45;2.88;;;;;;;8.51;100.00;100138.06;10496700;28;20071;-67
2022/11/03 04:27:35;;;;;;;10.32;3.03;;;;;;;8.69;100.00;100138.81;10524095;28;20043;-69
2022/11/03 04:32:36;;;;;;;13.60;3.08;;;;;;;8.06;100.00;100051.84;10521563;28;20044;-68
2022/11/03 04:37:37;;;;;;;7.53;2.88;;;;;;;8.05;100.00;100068.72;10515220;28;20063;-67
2022/11/03 04:42:38;;;;;;;9.90;2.90;;;;;;;8.67;100.00;100154.03;10520626;28;20412;-67
2022/11/03 04:47:39;;;;;;;6.10;3.08;;;;;;;8.61;100.00;100154.66;10505030;28;20803;-68
2022/11/03 04:52:40;;;;;;;11.48;3.08;;;;;;;8.69;100.00;100144.09;10514402;28;20072;-67
2022/11/03 04:57:40;;;;;;;10.80;3.13;;;;;;;8.69;100.00;100141.44;10503500;28;20041;-68
2022/11/03 05:02:42;;;;;;;16.45;4.05;;;;;;;8.82;100.00;100146.28;10530050;28;20032;-68
2022/11/03 05:07:45;;;;;;;9.65;5.65;;;;;;;8.83;100.00;100169.16;10516598;28;20045;-68
2022/11/03 05:12:47;;;;;;;10.88;7.32;;;;;;;8.76;100.00;100148.75;10535194;28;20047;-68
2022/11/03 05:17:48;;;;;;;17.88;9.75;;;;;;;8.99;100.00;100163.06;10543026;28;20047;-68
2022/11/03 05:22:49;;;;;;;14.20;10.05;;;;;;;8.86;100.00;100136.22;10544895;28;20040;-68
2022/11/03 05:27:49;;;;;;;16.92;12.13;;;;;;;9.06;100.00;100158.78;10544236;28;20040;-67
2022/11/03 05:32:51;;;;;;;17.67;11.80;;;;;;;8.85;100.00;100119.47;10542678;28;20488;-67
2022/11/03 05:37:52;;;;;;;20.23;12.68;;;;;;;9.27;100.00;100181.31;10543477;28;20068;-68
2022/11/03 05:42:58;;;;;;;19.73;11.93;;;;;;;9.18;100.00;100177.81;10543337;28;20509;-68
2022/11/03 05:48:01;;;;;;;21.15;12.73;;;;;;;9.36;100.00;100188.28;10543914;28;20035;-68
2022/11/03 05:53:18;;;;;;;18.63;11.77;;;;;;;9.48;100.00;100189.66;10544227;28;20048;-68
2022/11/03 05:58:34;;;;;;;16.10;9.90;;;;;;;9.53;100.00;100179.34;10543361;28;20071;-68
2022/11/03 06:03:36;;;;;;;21.73;10.00;;;;;;;9.48;100.00;100157.84;10543869;28;20032;-68
2022/11/03 06:08:37;;;;;;;15.52;9.60;;;;;;;9.51;100.00;100164.59;10543114;28;20115;-68
2022/11/03 06:13:38;;;;;;;15.30;8.68;;;;;;;9.38;100.00;100135.94;10542917;28;20044;-68
2022/11/03 06:18:38;;;;;;;13.02;8.30;;;;;;;9.59;100.00;100157.47;10542335;28;20180;-68
2022/11/03 06:23:40;;;;;;;11.02;7.47;;;;;;;9.58;100.00;100153.19;10542123;28;20143;-68
2022/11/03 06:28:41;;;;;;;21.63;13.93;;;;;;;9.71;100.00;100149.19;10541998;28;20127;-68
2022/11/03 06:33:42;;;;;;;20.50;9.73;;;;;;;9.89;100.00;100149.00;10543139;28;20138;-68
2022/11/03 06:38:49;;;;;;;13.75;7.05;;;;;;;9.84;100.00;100109.69;10541891;28;20121;-68
2022/11/03 06:43:51;;;;;;;12.10;7.40;;;;;;;9.95;100.00;100127.94;10541263;28;20093;-68
2022/11/03 06:49:13;;;;;;;9.73;6.18;;;;;;;9.72;100.00;100080.06;10542013;28;20048;-68
2022/11/03 06:54:14;;;;;;;13.40;7.68;;;;;;;9.75;100.00;100082.38;10540518;28;20036;-68
2022/11/03 06:59:17;;;;;;;10.85;5.97;;;;;;;10.13;100.00;100151.59;10540528;28;20434;-68
2022/11/03 07:04:21;;;;;;;8.30;5.43;;;;;;;10.18;100.00;100175.81;10540303;28;20237;-68
2022/11/03 07:09:26;;;;;;;10.10;5.53;;;;;;;10.16;100.00;100174.34;10540159;28;20040;-68
2022/11/03 07:14:30;;;;;;;10.25;6.05;;;;;;;10.20;100.00;100178.28;10540526;28;20051;-68
2022/11/03 07:19:44;;;;;;;9.77;4.83;;;;;;;10.12;100.00;100192.44;10540245;28;20032;-68
2022/11/03 07:24:47;;;;;;;7.72;5.32;;;;;;;10.06;100.00;100178.00;10539542;28;20037;-68
2022/11/03 07:29:56;;;;;;;8.73;4.65;;;;;;;10.15;100.00;100154.09;10539161;28;20042;-68
2022/11/03 07:35:17;;;;;;;11.23;6.32;;;;;;;9.87;100.00;100117.34;10539663;28;20039;-68
2022/11/03 07:40:22;;;;;;;9.20;4.55;;;;;;;10.19;100.00;100192.56;10539241;28;20063;-67
2022/11/03 07:45:41;;;;;;;7.78;4.35;;;;;;;10.07;100.00;100195.56;10539207;28;20036;-68
2022/11/03 07:50:42;;;;;;;8.13;4.50;;;;;;;9.57;100.00;100121.50;10539028;28;20047;-68
2022/11/03 07:55:45;;;;;;;11.38;5.20;;;;;;;9.32;100.00;100118.03;10538275;28;20496;-68
2022/11/03 08:00:45;;;;;;;8.07;4.90;;;;;;;9.73;100.00;100182.53;10538483;28;20143;-67
2022/11/03 08:05:46;;;;;;;8.88;4.60;;;;;;;9.22;100.00;100122.69;10538049;28;20122;-68
2022/11/03 08:10:47;;;;;;;9.13;4.68;;;;;;;9.62;100.00;100205.91;10538722;28;20067;-67
2022/11/03 08:15:48;;;;;;;11.18;4.90;;;;;;;9.22;100.00;100141.25;10538246;28;20456;-67
2022/11/03 08:20:48;;;;;;;8.70;3.80;;;;;;;9.48;100.00;100176.41;10538083;28;20040;-67
2022/11/03 08:25:49;;;;;;;8.30;3.75;;;;;;;9.63;100.00;100210.19;10538016;28;20036;-67
2022/11/03 08:30:50;;;;;;;14.15;3.83;;;;;;;9.57;100.00;100209.88;10537963;28;20075;-67
2022/11/03 08:35:51;;;;;;;7.85;3.65;;;;;;;9.37;100.00;100189.97;10537452;28;20040;-68
2022/11/03 08:40:52;;;;;;;6.70;4.35;;;;;;;9.57;100.00;100223.13;10537288;28;20484;-68
2022/11/03 08:45:53;;;;;;;10.18;5.03;;;;;;;9.62;100.00;100229.75;10516052;28;20127;-68
2022/11/03 08:50:55;;;;;;;8.32;5.15;;;;;;;9.44;100.00;100206.88;10509008;28;20043;-67
2022/11/03 08:55:55;;;;;;;10.73;4.80;;;;;;;9.09;100.00;100147.84;10495569;28;20072;-67
2022/11/03 09:00:56;;;;;;;8.98;5.07;;;;;;;9.58;100.00;100229.28;10520785;28;20068;-67
2022/11/03 09:05:57;;;;;;;7.53;4.35;;;;;;;9.67;100.00;100222.16;10536442;28;20040;-67
2022/11/03 09:10:58;;;;;;;8.35;4.53;;;;;;;9.73;100.00;100235.56;10536853;28;20115;-68
2022/11/03 09:15:59;;;;;;;8.80;4.47;;;;;;;9.75;100.00;100219.47;10518408;28;20492;-68
2022/11/03 09:21:00;;;;;;;4.35;2.20;;;;;;;9.80;100.00;100236.56;10494263;28;20090;-68
2022/11/03 09:26:01;;;;;;;4.78;2.33;;;;;;;9.73;100.00;100221.50;10495096;28;20040;-67
2022/11/03 09:31:01;;;;;;;3.80;1.90;;;;;;;9.89;100.00;100231.25;10494633;28;20047;-68
2022/11/03 09:36:02;;;;;;;6.63;2.22;;;;;;;10.13;100.00;100230.41;10494256;28;20060;-68
2022/11/03 09:41:04;;;;;;;19.85;2.88;;;;;;;10.30;100.00;100225.94;10493985;28;20089;-68
2022/11/03 09:46:05;;;;;;;5.35;1.90;;;;;;;10.25;100.00;100207.81;10494678;28;20071;-68
2022/11/03 09:51:09;;;;;;;3.03;1.42;;;;;;;9.84;100.00;100152.16;10511288;28;20068;-67
2022/11/03 09:56:10;;;;;;;3.00;1.50;;;;;;;10.21;100.00;100222.44;10518434;28;20064;-68
2022/11/03 10:01:11;;;;;;;7.07;1.98;;;;;;;10.16;100.00;100216.81;10516496;28;20151;-67
2022/11/03 10:06:12;;;;;;;2.92;1.45;;;;;;;10.07;100.00;100208.84;10517316;28;20091;-68
2022/11/03 10:11:14;;;;;;;4.57;1.83;;;;;;;9.68;100.00;100142.41;10514246;28;20161;-68
2022/11/03 10:16:19;;;;;;;4.05;2.35;;;;;;;10.21;100.00;100249.00;10515170;28;20043;-70
2022/11/03 10:21:27;;;;;;;5.43;2.70;;;;;;;10.29;100.00;100235.75;10517115;28;20113;-68
2022/11/03 10:26:34;;;;;;;6.10;2.10;;;;;;;9.97;100.00;100170.22;10507967;28;20043;-68
2022/11/03 10:31:40;;;;;;;6.20;2.58;;;;;;;10.58;100.00;100239.66;10514925;28;20039;-68
2022/11/03 10:36:40;;;;;;;3.72;2.13;;;;;;;10.37;100.00;100211.81;10514586;28;20079;-68
2022/11/03 10:41:55;;;;;;;2.75;1.40;;;;;;;9.99;100.00;100153.16;10514021;28;20055;-69
2022/11/03 10:47:03;;;;;;;2.13;1.23;;;;;;;10.48;100.00;100240.66;10515049;28;20403;-69
2022/11/03 10:52:21;;;;;;;2.67;1.42;;;;;;;10.44;100.00;100242.03;10516314;28;20032;-69
2022/11/03 10:57:23;;;;;;;1.60;0.88;;;;;;;10.41;100.00;100241.50;10515883;28;20083;-69
2022/11/03 11:02:30;;;;;;;5.25;1.33;;;;;;;10.41;100.00;100250.31;10512342;28;20071;-68
2022/11/03 11:07:39;;;;;;;2.70;1.50;;;;;;;10.37;100.00;100249.00;10514001;28;20028;-69
2022/11/03 11:13:14;;;;;;;3.10;1.67;;;;;;;10.38;97.35;100255.13;10519929;28;20048;-68
2022/11/03 11:18:41;;;;;;;2.03;0.88;;;;;;;10.28;97.52;100245.50;10514878;28;20041;-69
2022/11/03 11:23:43;;;;;;;2.13;1.20;;;;;;;10.19;98.81;100253.63;10503658;28;20504;-68
2022/11/03 11:29:06;;;;;;;1.65;0.80;;;;;;;9.88;98.26;100185.34;10509850;28;20067;-67
2022/11/03 11:34:16;;;;;;;2.92;1.70;;;;;;;10.52;96.98;100265.88;10514084;28;20032;-68
2022/11/03 11:39:19;;;;;;;8.52;4.45;;;;;;;10.67;95.11;100267.84;10506616;28;20068;-68
2022/11/03 11:44:38;;;;;;;2.60;1.37;;;;;;;10.74;90.88;100276.81;10508071;28;20430;-67
2022/11/03 11:49:39;;;;;;;3.08;1.75;;;;;;;10.62;92.56;100260.41;10510550;28;20044;-67
2022/11/03 11:54:42;;;;;;;2.75;1.40;;;;;;;10.76;91.27;100280.09;10511556;28;20044;-67
2022/11/03 11:59:46;;;;;;;2.60;1.58;;;;;;;10.85;90.21;100276.41;10514727;28;20116;-68
2022/11/03 12:04:47;;;;;;;4.22;2.15;;;;;;;10.95;90.43;100287.69;10504669;28;20480;-68
2022/11/03 12:09:48;;;;;;;4.10;1.70;;;;;;;11.02;89.07;100292.31;10496163;28;20066;-67
2022/11/03 12:14:49;;;;;;;4.47;2.40;;;;;;;10.72;88.52;100218.50;10510536;28;20036;-69
2022/11/03 12:19:52;;;;;;;5.07;2.55;;;;;;;11.00;85.17;100267.72;10510398;28;20385;-67
2022/11/03 12:24:54;;;;;;;6.10;2.97;;;;;;;11.10;84.24;100297.63;10510191;28;20408;-68
2022/11/03 12:30:01;;;;;;;11.70;3.15;;;;;;;10.60;83.84;100232.34;10511309;28;20039;-67
2022/11/03 12:35:03;;;;;;;5.05;2.45;;;;;;;10.89;84.29;100299.00;10511562;28;20044;-67
2022/11/03 12:40:05;;;;;;;4.50;2.50;;;;;;;10.73;84.41;100288.41;10511641;28;20484;-67
2022/11/03 12:45:07;;;;;;;3.92;2.10;;;;;;;10.77;84.15;100295.06;10508041;28;20492;-69
2022/11/03 12:50:09;;;;;;;7.63;3.00;;;;;;;10.61;84.07;100276.50;10510108;28;20036;-71
2022/11/03 12:55:10;;;;;;;4.90;2.15;;;;;;;10.66;84.70;100304.22;10511999;28;20135;-70
2022/11/03 13:00:12;;;;;;;7.10;2.22;;;;;;;10.49;84.66;100300.75;10499733;28;20036;-69
2022/11/03 13:05:14;;;;;;;5.38;2.38;;;;;;;10.43;85.34;100327.97;10504568;28;20484;-69
2022/11/03 13:10:15;;;;;;;8.82;2.53;;;;;;;10.24;85.72;100323.00;10517847;28;20054;-69
2022/11/03 13:15:16;;;;;;;8.85;2.40;;;;;;;10.07;86.37;100330.94;10509859;28;20127;-69
2022/11/03 13:20:17;;;;;;;9.95;4.07;;;;;;;9.84;87.15;100327.25;10527692;28;20154;-68
2022/11/03 13:25:18;;;;;;;8.60;4.47;;;;;;;9.56;87.71;100314.28;10508740;28;20043;-68
2022/11/03 13:30:20;;;;;;;16.17;5.13;;;;;;;9.46;88.50;100316.25;10502253;28;20492;-68
2022/11/03 13:35:21;;;;;;;44.15;5.28;;;;;;;9.38;89.59;100326.81;10539816;28;20406;-68
2022/11/03 13:40:22;;;;;;;9.15;2.83;;;;;;;8.57;90.71;100245.16;10544843;28;20146;-70
2022/11/03 13:45:23;;;;;;;12.95;3.75;;;;;;;8.52;92.02;100277.41;10515383;28;20530;-69
2022/11/03 13:50:24;;;;;;;9.20;2.72;;;;;;;8.63;92.95;100331.94;10503591;28;20067;-69
2022/11/03 13:55:25;;;;;;;9.15;3.13;;;;;;;8.61;94.04;100355.06;10508057;28;20048;-69
2022/11/03 14:00:25;;;;;;;15.10;3.15;;;;;;;8.35;94.85;100349.72;10525207;28;20438;-69
2022/11/03 14:05:26;;;;;;;11.40;2.60;;;;;;;8.18;95.11;100352.22;10511480;28;20040;-69
2022/11/03 14:10:27;;;;;;;6.18;2.90;;;;;;;8.00;95.74;100373.41;10512819;28;20055;-69
2022/11/03 14:15:28;;;;;;;30.05;4.45;;;;;;;7.80;96.19;100365.75;10501055;28;20044;-69
2022/11/03 14:20:29;;;;;;;18.60;3.28;;;;;;;7.56;97.34;100375.06;10508729;28;20047;-69
2022/11/03 14:25:29;;;;;;;8.90;2.97;;;;;;;7.27;97.86;100356.75;10520253;28;20090;-69
2022/11/03 14:30:30;;;;;;;7.53;3.08;;;;;;;6.44;98.22;100251.00;10519259;28;20131;-69
2022/11/03 14:35:31;;;;;;;9.20;3.85;;;;;;;7.17;99.66;100408.78;10515382;28;20578;-68
2022/11/03 14:45:51;;;;;;;10.88;5.00;;;;;;;7.00;100.00;100424.41;10526967;28;20051;-68
2022/11/03 14:50:52;;;;;;;11.07;3.50;;;;;;;6.51;100.00;100352.38;10520045;28;20491;-69
2022/11/03 14:55:53;;;;;;;6.93;3.10;;;;;;;6.80;100.00;100431.53;10517494;28;20028;-69
2022/11/03 15:00:53;;;;;;;8.52;3.42;;;;;;;6.50;100.00;100411.41;10512326;28;20414;-69
2022/11/03 15:05:54;;;;;;;11.50;3.25;;;;;;;6.52;100.00;100432.38;10506078;28;20032;-69
2022/11/03 15:10:55;;;;;;;10.02;2.70;;;;;;;6.48;100.00;100436.28;10512322;28;20071;-69
2022/11/03 15:15:56;;;;;;;8.65;2.88;;;;;;;6.31;100.00;100446.56;10517032;28;20123;-69
2022/11/03 15:20:57;;;;;;;7.93;2.88;;;;;;;6.23;100.00;100438.50;10508325;28;20041;-69
2022/11/03 15:26:00;;;;;;;16.05;3.00;;;;;;;6.16;100.00;100438.22;10508405;28;20048;-69
2022/11/03 15:31:01;;;;;;;9.23;3.20;;;;;;;6.25;100.00;100462.94;10513603;28;20048;-70
2022/11/03 15:41:40;;;;;;;27.92;4.35;;;;;;;6.19;100.00;100481.94;10497856;28;20067;-69
2022/11/03 15:47:18;;;;;;;14.82;4.80;;;;;;;6.20;100.00;100475.69;10502556;28;20042;-70
2022/11/03 15:52:20;;;;;;;7.05;2.92;;;;;;;6.03;100.00;100481.63;10509095;28;20044;-70
2022/11/03 15:57:21;;;;;;;10.52;2.97;;;;;;;6.00;100.00;100505.63;10512119;28;20047;-70
2022/11/03 16:02:22;;;;;;;9.98;3.40;;;;;;;5.73;100.00;100486.78;10508926;28;20399;-70
2022/11/03 16:07:23;;;;;;;8.55;3.55;;;;;;;5.75;100.00;100515.66;10512978;28;20040;-70
2022/11/03 16:12:24;;;;;;;19.48;3.95;;;;;;;5.58;100.00;100501.28;10507690;28;20067;-70
2022/11/03 16:17:25;;;;;;;12.68;5.18;;;;;;;5.68;100.00;100522.41;10495796;28;20454;-69
2022/11/03 16:22:25;;;;;;;13.38;4.95;;;;;;;5.20;100.00;100425.53;10496495;28;20089;-69
2022/11/03 16:27:26;;;;;;;13.25;6.53;;;;;;;5.62;100.00;100496.56;10496020;28;20522;-69
2022/11/03 16:32:27;;;;;;;18.33;8.95;;;;;;;5.52;100.00;100480.72;10496095;28;20488;-69
2022/11/03 16:37:28;;;;;;;19.73;12.23;;;;;;;5.10;100.00;100419.41;10495385;28;20136;-70
2022/11/03 16:42:29;;;;;;;17.83;11.30;;;;;;;5.38;100.00;100510.88;10495782;28;20045;-69
2022/11/03 16:47:29;;;;;;;11.57;5.50;;;;;;;5.27;100.00;100503.06;10495812;28;20044;-69
2022/11/03 16:52:30;;;;;;;14.48;5.70;;;;;;;4.98;100.00;100508.97;10495737;28;20103;-69
2022/11/03 16:57:31;;;;;;;10.10;5.55;;;;;;;4.42;100.00;100439.97;10495194;28;20098;-70
2022/11/03 17:02:32;;;;;;;17.75;9.23;;;;;;;4.98;100.00;100522.13;10521211;28;20054;-70
2022/11/03 17:07:33;;;;;;;12.15;7.40;;;;;;;4.55;100.00;100440.66;10518740;28;20399;-69
2022/11/03 17:12:34;;;;;;;11.43;8.38;;;;;;;5.02;100.00;100507.75;10513854;28;20044;-69
2022/11/03 17:17:34;;;;;;;12.90;8.82;;;;;;;4.95;100.00;100505.78;10520292;28;20072;-70
2022/11/03 17:22:35;;;;;;;12.18;7.25;;;;;;;5.00;100.00;100507.06;10520668;28;20037;-70
2022/11/03 17:27:44;;;;;;;11.52;6.57;;;;;;;4.93;100.00;100505.88;10518979;28;20071;-69
2022/11/03 17:32:49;;;;;;;14.77;5.10;;;;;;;4.61;100.00;100499.81;10502631;28;20081;-69
2022/11/03 17:37:53;;;;;;;10.40;6.53;;;;;;;4.53;100.00;100503.09;10501356;28;20092;-69
2022/11/03 17:42:54;;;;;;;18.35;6.95;;;;;;;4.55;100.00;100524.84;10513588;28;20041;-69
2022/11/03 17:47:55;;;;;;;13.73;5.65;;;;;;;4.12;100.00;100444.16;10502140;28;20051;-69
2022/11/03 17:52:56;;;;;;;7.72;5.45;;;;;;;4.50;100.00;100521.75;10501642;28;20411;-70
2022/11/03 17:58:00;;;;;;;13.68;6.55;;;;;;;4.57;100.00;100518.47;10500148;28;20055;-69
2022/11/03 18:03:01;;;;;;;14.00;6.82;;;;;;;4.05;100.00;100420.16;10501519;28;20044;-69
2022/11/03 18:08:06;;;;;;;14.07;5.90;;;;;;;4.68;100.00;100530.78;10500661;28;20040;-69
2022/11/03 18:13:15;;;;;;;8.05;5.68;;;;;;;4.74;100.00;100524.16;10499185;28;20400;-69
2022/11/03 18:18:36;;;;;;;17.33;6.10;;;;;;;4.90;100.00;100548.25;10500762;28;20044;-69
2022/11/03 18:23:37;;;;;;;8.93;5.00;;;;;;;4.44;100.00;100456.50;10501207;28;20045;-69
2022/11/03 18:28:38;;;;;;;12.82;6.05;;;;;;;5.01;100.00;100523.69;10501088;28;20044;-69
2022/11/03 18:33:39;;;;;;;12.32;7.25;;;;;;;5.26;100.00;100533.00;10557908;28;20120;-69
2022/11/03 18:38:42;;;;;;;11.18;6.97;;;;;;;5.26;100.00;100527.72;10583621;28;20091;-69
2022/11/03 18:43:43;;;;;;;15.50;6.80;;;;;;;5.50;100.00;100545.88;10584620;28;20108;-69
2022/11/03 18:48:44;;;;;;;10.98;6.50;;;;;;;5.66;100.00;100534.91;10583402;28;20043;-69
2022/11/03 18:53:44;;;;;;;10.90;5.55;;;;;;;5.72;100.00;100542.28;10582696;28;20063;-69
2022/11/03 18:58:46;;;;;;;7.20;5.18;;;;;;;5.63;100.00;100546.53;10543224;28;20044;-69
2022/11/03 19:03:47;;;;;;;6.43;4.00;;;;;;;5.54;100.00;100528.88;10541517;28;20071;-69
2022/11/03 19:08:50;;;;;;;8.15;5.35;;;;;;;5.41;100.00;100533.50;10541566;28;20078;-70
2022/11/03 19:13:51;;;;;;;8.50;5.20;;;;;;;5.46;100.00;100526.88;10540195;28;20032;-69
2022/11/03 19:18:52;;;;;;;8.55;5.55;;;;;;;5.03;100.00;100456.78;10539626;28;20044;-69
2022/11/03 19:23:52;;;;;;;11.35;6.25;;;;;;;5.43;100.00;100544.75;10539377;28;20046;-69
2022/11/03 19:29:02;;;;;;;8.13;5.68;;;;;;;5.38;100.00;100546.94;10540798;28;20036;-69
2022/11/03 19:34:06;;;;;;;9.18;4.90;;;;;;;5.31;100.00;100546.63;10539626;28;20123;-69
2022/11/03 19:39:20;;;;;;;7.22;5.20;;;;;;;5.28;100.00;100556.59;10539756;28;20511;-69
2022/11/03 19:44:21;;;;;;;10.43;4.32;;;;;;;4.96;100.00;100531.94;10539439;28;20134;-69
2022/11/03 19:49:22;;;;;;;8.30;4.55;;;;;;;4.99;100.00;100550.13;10539769;28;20452;-69
2022/11/03 19:54:23;;;;;;;5.55;4.38;;;;;;;4.46;100.00;100480.88;10538499;28;20054;-69
2022/11/03 19:59:25;;;;;;;13.40;4.63;;;;;;;4.87;100.00;100537.16;10538058;28;20458;-70
2022/11/03 20:04:25;;;;;;;9.10;5.38;;;;;;;4.84;100.00;100543.50;10538951;28;20032;-69
2022/11/03 20:09:26;;;;;;;7.40;4.95;;;;;;;4.78;100.00;100544.84;10538982;28;20146;-69
2022/11/03 20:14:27;;;;;;;25.98;4.43;;;;;;;4.69;100.00;100535.06;10538442;28;20040;-69
2022/11/03 20:19:28;;;;;;;16.52;8.40;;;;;;;4.28;100.00;100472.69;10537733;28;20536;-69
2022/11/03 20:24:31;;;;;;;14.32;7.57;;;;;;;4.19;100.00;100469.00;10538179;28;20205;-69
2022/11/03 20:29:31;;;;;;;7.65;4.70;;;;;;;4.57;100.00;100557.94;10538400;28;20047;-69
2022/11/03 20:34:32;;;;;;;13.48;5.50;;;;;;;4.55;100.00;100545.91;10530622;28;20499;-69
2022/11/03 20:39:33;;;;;;;11.25;5.03;;;;;;;4.57;100.00;100555.31;10503891;28;20534;-69
2022/11/03 20:44:34;;;;;;;9.65;5.10;;;;;;;4.37;100.00;100534.19;10495656;28;20127;-69
2022/11/03 20:49:35;;;;;;;10.68;6.35;;;;;;;4.44;100.00;100559.06;10495062;28;20064;-69
2022/11/03 20:54:35;;;;;;;7.85;4.90;;;;;;;4.54;100.00;100546.84;10495037;28;20041;-69
2022/11/03 20:59:36;;;;;;;7.90;4.60;;;;;;;4.46;100.00;100534.31;10494832;28;20114;-69
2022/11/03 21:04:37;;;;;;;9.75;4.88;;;;;;;4.19;100.00;100481.28;10494332;28;20063;-69
2022/11/03 21:09:38;;;;;;;6.95;4.53;;;;;;;4.26;100.00;100483.31;10494665;28;20080;-69
2022/11/03 21:19:57;;;;;;;6.95;4.82;;;;;;;4.72;100.00;100571.66;10495291;28;20033;-69
2022/11/03 21:20:10;;;;;;;10.25;5.60;;;;;;;4.75;100.00;100570.56;10495048;28;20123;-69
2022/11/03 21:25:17;;;;;;;7.03;4.32;;;;;;;4.57;100.00;100541.31;10495031;28;20042;-69
2022/11/03 21:30:18;;;;;;;6.80;4.40;;;;;;;4.61;100.00;100571.72;10494404;28;20458;-69
2022/11/03 21:35:20;;;;;;;9.35;4.10;;;;;;;4.60;100.00;100577.09;10494832;28;20105;-69
2022/11/03 21:40:22;;;;;;;15.93;5.05;;;;;;;3.92;100.00;100481.69;10495423;28;20595;-69
2022/11/03 21:45:23;;;;;;;9.52;4.10;;;;;;;4.35;100.00;100572.00;10493959;28;20123;-69
2022/11/03 21:50:23;;;;;;;7.38;3.90;;;;;;;4.32;100.00;100579.28;10500786;28;20050;-69
2022/11/03 21:55:24;;;;;;;11.98;4.07;;;;;;;3.79;100.00;100490.56;10502301;28;20459;-69
2022/11/03 22:00:27;;;;;;;6.13;3.83;;;;;;;4.17;100.00;100562.94;10512526;28;20090;-69
2022/11/03 22:05:28;;;;;;;5.55;3.88;;;;;;;4.12;100.00;100565.91;10501791;28;20075;-69
2022/11/03 22:10:29;;;;;;;9.25;4.20;;;;;;;3.96;100.00;100547.06;10500786;28;20464;-69
2022/11/03 22:31:40;;;;;;;9.35;3.83;;;;;;;3.83;100.00;100557.72;10499819;28;20051;-69
2022/11/03 22:36:40;;;;;;;12.60;3.75;;;;;;;3.80;100.00;100551.81;10500690;28;20056;-69
2022/11/03 22:47:00;;;;;;;5.82;3.78;;;;;;;3.62;100.00;100549.69;10499766;28;20040;-69
2022/11/03 22:52:01;;;;;;;6.15;3.78;;;;;;;3.69;100.00;100552.69;10499686;28;20493;-69
2022/11/03 22:57:02;;;;;;;8.05;4.20;;;;;;;3.76;100.00;100540.72;10499299;28;20119;-69
2022/11/03 23:02:03;;;;;;;9.65;3.95;;;;;;;4.05;100.00;100556.84;10499258;28;20045;-69
2022/11/03 23:07:04;;;;;;;9.13;4.00;;;;;;;4.09;100.00;100529.34;10499275;28;20036;-69
2022/11/03 23:12:05;;;;;;;7.32;3.78;;;;;;;4.33;100.00;100565.19;10499046;28;20122;-69
2022/11/03 23:17:05;;;;;;;5.45;3.92;;;;;;;4.39;100.00;100554.16;10498817;28;20036;-69
2022/11/03 23:22:06;;;;;;;7.47;4.20;;;;;;;4.50;100.00;100554.16;10498412;28;20058;-69
2022/11/03 23:27:07;;;;;;;7.38;3.53;;;;;;;4.58;100.00;100557.00;10498744;28;20523;-69
2022/11/03 23:32:08;;;;;;;7.18;4.50;;;;;;;4.12;100.00;100471.28;10504641;28;20040;-69
2022/11/03 23:37:09;;;;;;;5.82;4.10;;;;;;;4.70;100.00;100554.34;10502167;28;20056;-69
2022/11/03 23:42:10;;;;;;;8.05;4.18;;;;;;;4.74;100.00;100553.94;10497651;28;20051;-69
2022/11/03 23:52:30;;;;;;;5.40;3.72;;;;;;;4.75;100.00;100528.47;10496641;28;20465;-69
